Benjamin, Texas
Current Conditions -  °F | °C
As of 12:55 AM on Friday 19 Dec 2014 (Local Time) from KF05 Reporting Station
Overcast Overcast  
Wind Chill: 41°   Ceiling: 700
Heat Index: 44°   Visibility: 10mi
Dew Point: 38°   Wind: 5mph
Humidity: 81%   Direction: 30°NNE
Pressure: 30.21"   Gusts: NA
Location:  33.58°N, 99.79°W
Report Text: KF05 190655Z AUTO 03004KT 10SM OVC007 07/04 A3021 RMK AO1 T00650035
Loading
Personal Weather Stations






























Interactive Weather Map New forecast layout! Learn more

10-Day Weather Forecast

Advertisements
Track Severe Weather on mobile